Terminal Aerodrome Forecast
Issued by NWS Cleveland, OH

Home | Current Version | Previous Version | Graphics & Text | Print | Product List | Glossary On
Versions: 1 2 3 4 5 6 7 8 9 10 11 12 13 14
000
FTUS41 KCLE 192320
TAFYNG
TAF
KYNG 192320Z 2000/2024 32011KT P6SM SCT035
      TEMPO 2000/2002 BKN035
     FM200200 32007KT P6SM SKC
     FM201500 32012KT P6SM SCT050=

USA.gov is the U.S. government's official web portal to all federal, state and local government web resources and services.